createdAt,value
2022-12-05T00:02:11.188Z,96630.13
2022-12-05T00:04:39.819Z,96623.59
2022-12-05T00:07:08.467Z,96635.19
2022-12-05T00:09:37.098Z,96629.78
2022-12-05T00:12:05.964Z,96628.44
2022-12-05T00:14:34.291Z,96632.72
2022-12-05T00:17:04.180Z,96638.97
2022-12-05T00:19:32.980Z,96641.38
2022-12-05T00:22:01.280Z,96645.94
2022-12-05T00:24:29.762Z,96646.53
2022-12-05T00:26:58.267Z,96646.50
2022-12-05T00:29:27.308Z,96644.34
2022-12-05T00:31:56.072Z,96647.38
2022-12-05T00:34:26.353Z,96654.38
2022-12-05T00:36:55.022Z,96650.34
2022-12-05T00:39:23.469Z,96654.06
2022-12-05T00:41:51.814Z,96660.84
2022-12-05T00:44:20.552Z,96668.94
2022-12-05T00:46:48.937Z,96668.94
2022-12-05T00:49:17.599Z,96677.88
2022-12-05T00:51:47.659Z,96679.19
2022-12-05T00:54:18.544Z,96685.13
2022-12-05T00:56:47.323Z,96691.09
2022-12-05T00:59:18.483Z,96688.09
2022-12-05T01:01:50.704Z,96692.72
2022-12-05T01:04:22.544Z,96692.22
2022-12-05T01:06:56.254Z,96695.16
2022-12-05T01:09:26.167Z,96690.84
2022-12-05T01:11:55.322Z,96702.44
2022-12-05T01:14:26.880Z,96699.75
2022-12-05T01:16:57.438Z,96693.31
2022-12-05T01:19:29.163Z,96698.72
2022-12-05T01:21:59.395Z,96704.09
2022-12-05T01:24:29.525Z,96702.22
2022-12-05T01:26:58.159Z,96709.28
2022-12-05T01:29:27.221Z,96714.38
2022-12-05T01:31:56.351Z,96709.78
2022-12-05T01:34:25.855Z,96713.53
2022-12-05T01:36:55.637Z,96717.88
2022-12-05T01:39:25.530Z,96724.63
2022-12-05T01:41:54.007Z,96724.31
2022-12-05T01:45:01.345Z,96725.97
2022-12-05T01:47:32.660Z,96732.16
2022-12-05T01:50:02.154Z,96736.22
2022-12-05T01:52:32.922Z,96751.59
2022-12-05T01:55:09.882Z,96738.63
2022-12-05T01:57:38.973Z,96754.31
2022-12-05T02:00:13.602Z,96762.69
2022-12-05T02:02:51.152Z,96763.47
2022-12-05T02:05:24.318Z,96764.31
2022-12-05T02:07:53.495Z,96758.09
2022-12-05T02:10:24.070Z,96765.66
2022-12-05T02:12:53.567Z,96767.81
2022-12-05T02:15:40.461Z,96778.59
2022-12-05T02:18:33.584Z,96778.59
2022-12-05T02:21:42.164Z,96786.91
2022-12-05T02:25:00.692Z,96788.53
2022-12-05T02:27:46.923Z,96785.59
2022-12-05T02:30:20.560Z,96786.38
2022-12-05T02:33:05.557Z,96787.19
2022-12-05T02:35:47.705Z,96793.13
2022-12-05T02:38:31.140Z,96795.84
2022-12-05T02:41:15.479Z,96799.63
2022-12-05T02:43:52.569Z,96801.22
2022-12-05T02:46:27.453Z,96795.81
2022-12-05T02:49:01.225Z,96814.44
2022-12-05T02:51:36.620Z,96800.41
2022-12-05T02:54:12.661Z,96800.16
2022-12-05T02:56:46.121Z,96805.00
2022-12-05T02:59:21.447Z,96816.09
2022-12-05T03:01:53.355Z,96826.84
2022-12-05T03:04:25.945Z,96834.69
2022-12-05T03:06:59.869Z,96822.56
2022-12-05T03:09:36.449Z,96805.03
2022-12-05T03:12:13.998Z,96807.72
2022-12-05T03:14:48.295Z,96833.34
2022-12-05T03:17:25.929Z,96833.91
2022-12-05T03:20:06.262Z,96822.28
2022-12-05T03:22:41.688Z,96841.16
2022-12-05T03:25:11.911Z,96838.19
2022-12-05T03:27:53.127Z,96841.16
2022-12-05T03:30:24.016Z,96854.38
2022-12-05T03:33:04.038Z,96851.13
2022-12-05T03:35:41.307Z,96858.41
2022-12-05T03:38:15.397Z,96858.16
2022-12-05T03:40:49.518Z,96850.84
2022-12-05T03:43:24.106Z,96871.38
2022-12-05T03:46:00.402Z,96866.50
2022-12-05T03:48:37.717Z,96861.66
2022-12-05T03:51:11.492Z,96859.75
2022-12-05T03:53:50.344Z,96863.00
2022-12-05T03:56:26.229Z,96860.03
2022-12-05T03:59:04.060Z,96867.31
2022-12-05T04:01:36.443Z,96871.59
2022-12-05T04:04:14.976Z,96882.13
2022-12-05T04:06:46.689Z,96877.78
2022-12-05T04:09:20.655Z,96878.91
2022-12-05T04:11:56.006Z,96868.94
2022-12-05T04:14:33.999Z,96876.19
2022-12-05T04:17:06.528Z,96888.59
2022-12-05T04:20:01.179Z,96886.44
2022-12-05T04:22:30.518Z,96895.31
2022-12-05T04:25:19.848Z,96901.25
2022-12-05T04:27:58.048Z,96902.59
2022-12-05T04:30:34.209Z,96910.97
2022-12-05T04:33:07.740Z,96902.03
2022-12-05T04:35:44.205Z,96912.03
2022-12-05T04:38:20.796Z,96915.25
2022-12-05T04:40:56.738Z,96907.72
2022-12-05T04:43:27.641Z,96916.88
2022-12-05T04:46:00.334Z,96920.94
2022-12-05T04:48:31.592Z,96921.47
2022-12-05T04:51:02.738Z,96924.69
2022-12-05T04:53:33.335Z,96919.56
2022-12-05T04:56:05.533Z,96928.72
2022-12-05T04:58:34.210Z,96926.28
2022-12-05T05:01:12.613Z,96921.97
2022-12-05T05:03:45.758Z,96916.56
2022-12-05T05:06:16.348Z,96918.72
2022-12-05T05:08:51.181Z,96917.66
2022-12-05T05:11:24.017Z,96922.97
2022-12-05T05:13:53.303Z,96921.34
2022-12-05T05:16:25.342Z,96928.63
2022-12-05T05:18:54.647Z,96916.00
2022-12-05T05:21:29.397Z,96911.97
2022-12-05T05:23:58.840Z,96897.16
2022-12-05T05:26:29.696Z,96908.75
2022-12-05T05:29:01.419Z,96913.59
2022-12-05T05:31:29.977Z,96929.69
2022-12-05T05:34:01.265Z,96919.19
2022-12-05T05:36:36.103Z,96932.09
2022-12-05T05:39:07.281Z,96933.44
2022-12-05T05:41:37.599Z,96939.06
2022-12-05T05:44:06.875Z,96935.03
2022-12-05T05:46:37.019Z,96940.16
2022-12-05T05:49:06.145Z,96939.09
2022-12-05T05:51:35.844Z,96948.22
2022-12-05T05:54:04.664Z,96937.97
2022-12-05T05:56:33.001Z,96935.81
2022-12-05T05:59:03.722Z,96939.09
2022-12-05T06:01:32.530Z,96944.72
2022-12-05T06:04:01.070Z,96944.44
2022-12-05T06:06:29.795Z,96945.53
2022-12-05T06:08:59.573Z,96949.88
2022-12-05T06:11:29.610Z,96956.09
2022-12-05T06:14:01.149Z,96953.94
2022-12-05T06:16:31.231Z,96961.22
2022-12-05T06:19:00.871Z,96951.28
2022-12-05T06:21:29.312Z,96956.16
2022-12-05T06:23:59.316Z,96959.63
2022-12-05T06:26:28.511Z,96961.81
2022-12-05T06:28:57.116Z,96966.41
2022-12-05T06:31:31.003Z,96968.00
2022-12-05T06:34:02.658Z,96968.00
2022-12-05T06:36:32.539Z,96978.50
2022-12-05T06:39:02.533Z,96986.53
2022-12-05T06:41:31.175Z,96987.31
2022-12-05T06:44:02.190Z,96986.56
2022-12-05T06:46:31.372Z,96982.25
2022-12-05T06:49:00.532Z,96993.00
2022-12-05T06:51:29.125Z,96976.03
2022-12-05T06:53:57.779Z,96979.81
2022-12-05T06:56:27.569Z,96990.59
2022-12-05T06:58:56.662Z,96996.22
2022-12-05T07:01:42.379Z,97007.25
2022-12-05T07:04:20.215Z,97009.16
2022-12-05T07:06:51.080Z,97017.50
2022-12-05T07:09:22.112Z,97022.34
2022-12-05T07:11:52.955Z,97020.97
2022-12-05T07:17:10.369Z,97021.78
2022-12-05T07:19:39.011Z,97021.84
2022-12-05T07:22:13.673Z,97021.59
2022-12-05T07:24:43.617Z,97024.81
2022-12-05T07:27:13.903Z,97018.88
2022-12-05T07:29:42.621Z,97030.44
2022-12-05T07:32:11.358Z,97025.06
2022-12-05T07:34:39.906Z,97029.13
2022-12-05T07:37:08.255Z,97035.56
2022-12-05T07:39:36.942Z,97032.34
2022-12-05T07:42:05.638Z,97031.53
2022-12-05T07:44:35.536Z,97028.03
2022-12-05T07:47:03.857Z,97037.50
2022-12-05T07:49:32.191Z,97041.25
2022-12-05T07:52:01.938Z,97049.63
2022-12-05T07:54:30.552Z,97050.72
2022-12-05T07:56:59.151Z,97055.03
2022-12-05T07:59:27.752Z,97059.06
2022-12-05T08:01:57.581Z,97063.16
2022-12-05T08:04:26.065Z,97068.31
2022-12-05T08:06:54.345Z,97079.16
2022-12-05T08:09:22.619Z,97074.59
2022-12-05T08:11:52.843Z,97080.28
2022-12-05T08:14:21.818Z,97080.50
2022-12-05T08:16:50.245Z,97079.19
2022-12-05T08:19:20.350Z,97084.31
2022-12-05T08:21:48.846Z,97091.06
2022-12-05T08:24:17.454Z,97085.38
2022-12-05T08:26:45.782Z,97083.19
2022-12-05T08:29:17.054Z,97089.94
2022-12-05T08:31:48.328Z,97088.28
2022-12-05T08:34:20.853Z,97085.09
2022-12-05T08:36:50.037Z,97091.28
2022-12-05T08:39:20.619Z,97090.75
2022-12-05T08:41:50.027Z,97081.06
2022-12-05T08:44:19.023Z,97087.25
2022-12-05T08:46:50.063Z,97089.41
2022-12-05T08:49:20.681Z,97092.91
2022-12-05T08:51:49.351Z,97093.44
2022-12-05T08:54:18.093Z,97094.25
2022-12-05T08:56:46.941Z,97092.13
2022-12-05T08:59:15.270Z,97090.25
2022-12-05T09:01:44.052Z,97086.75
2022-12-05T09:04:13.408Z,97087.84
2022-12-05T09:06:43.757Z,97093.81
2022-12-05T09:09:13.939Z,97100.81
2022-12-05T09:11:48.878Z,97104.06
2022-12-05T09:14:17.996Z,97102.13
2022-12-05T09:16:48.652Z,97107.25
2022-12-05T09:19:21.663Z,97105.34
2022-12-05T09:21:51.356Z,97113.72
2022-12-05T09:24:19.884Z,97104.84
2022-12-05T09:26:48.835Z,97117.53
2022-12-05T09:29:18.247Z,97115.91
2022-12-05T09:31:51.792Z,97124.00
2022-12-05T09:34:20.330Z,97119.41
2022-12-05T09:37:05.499Z,97124.81
2022-12-05T09:39:39.170Z,97124.28
2022-12-05T09:42:31.045Z,97129.63
2022-12-05T09:45:17.617Z,97124.78
2022-12-05T09:47:58.595Z,97131.56
2022-12-05T09:50:29.271Z,97131.28
2022-12-05T09:53:18.019Z,97132.63
2022-12-05T09:55:52.343Z,97128.84
2022-12-05T09:58:42.510Z,97120.22
2022-12-05T10:01:32.899Z,97122.94
2022-12-05T10:04:39.092Z,97119.44
2022-12-05T10:07:20.420Z,97127.00
2022-12-05T10:10:06.533Z,97124.84
2022-12-05T10:13:00.090Z,97126.19
2022-12-05T10:15:35.120Z,97121.56
2022-12-05T10:18:16.030Z,97121.88
2022-12-05T10:20:52.161Z,97127.00
2022-12-05T10:23:56.085Z,97126.94
2022-12-05T10:26:18.918Z,97127.75
2022-12-05T10:28:53.864Z,97133.44
2022-12-05T10:31:28.402Z,97129.63
2022-12-05T10:34:06.067Z,97129.38
2022-12-05T10:36:35.256Z,97128.06
2022-12-05T10:39:09.900Z,97123.78
2022-12-05T10:41:40.987Z,97126.16
2022-12-05T10:44:09.816Z,97121.81
2022-12-05T10:46:38.506Z,97123.19
2022-12-05T10:49:13.180Z,97121.56
2022-12-05T10:51:42.419Z,97112.44
2022-12-05T10:54:21.876Z,97105.97
2022-12-05T10:56:54.486Z,97104.91
2022-12-05T10:59:25.602Z,97107.34
2022-12-05T11:01:57.304Z,97104.94
2022-12-05T11:04:31.328Z,97104.66
2022-12-05T11:07:02.580Z,97093.59
2022-12-05T11:09:33.888Z,97087.09
2022-12-05T11:12:19.523Z,97082.72
2022-12-05T11:15:06.122Z,97090.53
2022-12-05T11:17:37.964Z,97087.31
2022-12-05T11:20:41.249Z,97087.34
2022-12-05T11:23:24.858Z,97090.53
2022-12-05T11:25:53.566Z,97092.19
2022-12-05T11:28:33.994Z,97096.25
2022-12-05T11:31:06.878Z,97086.81
2022-12-05T11:33:37.731Z,97088.41
2022-12-05T11:36:20.885Z,97094.66
2022-12-05T11:38:49.850Z,97089.25
2022-12-05T11:41:46.730Z,97097.63
2022-12-05T11:44:51.423Z,97091.44
2022-12-05T11:47:41.132Z,97087.94
2022-12-05T11:50:31.939Z,97084.44
2022-12-05T11:53:21.046Z,97083.88
2022-12-05T11:55:59.628Z,97076.81
2022-12-05T11:58:56.709Z,97077.09
2022-12-05T12:01:44.787Z,97073.06
2022-12-05T12:04:56.912Z,97081.97
2022-12-05T12:07:40.799Z,97076.28
2022-12-05T12:10:27.281Z,97079.81
2022-12-05T12:13:07.249Z,97086.28
2022-12-05T12:16:03.761Z,97084.94
2022-12-05T12:19:11.000Z,97084.38
2022-12-05T12:22:03.325Z,97076.81
2022-12-05T12:24:53.890Z,97078.72
2022-12-05T12:27:40.522Z,97080.56
2022-12-05T12:30:18.581Z,97084.13
2022-12-05T12:33:03.533Z,97075.47
2022-12-05T12:35:43.043Z,97078.44
2022-12-05T12:38:38.798Z,97085.50
2022-12-05T12:41:19.247Z,97083.84
2022-12-05T12:44:04.131Z,97069.78
2022-12-05T12:46:48.634Z,97083.56
2022-12-05T12:49:45.335Z,97084.91
2022-12-05T12:52:21.261Z,97082.22
2022-12-05T12:55:19.491Z,97081.97
2022-12-05T12:58:07.513Z,97069.25
2022-12-05T13:00:57.337Z,97071.44
2022-12-05T13:03:32.996Z,97064.41
2022-12-05T13:06:08.343Z,97064.94
2022-12-05T13:08:47.116Z,97061.72
2022-12-05T13:11:19.676Z,97059.00
2022-12-05T13:13:54.177Z,97068.41
2022-12-05T13:16:28.851Z,97059.22
2022-12-05T13:18:58.559Z,97068.44
2022-12-05T13:21:29.157Z,97073.84
2022-12-05T13:24:03.380Z,97075.22
2022-12-05T13:26:34.374Z,97069.28
2022-12-05T13:29:05.854Z,97073.31
2022-12-05T13:31:40.932Z,97075.75
2022-12-05T13:34:46.793Z,97080.59
2022-12-05T13:37:40.434Z,97071.09
2022-12-05T13:40:44.227Z,97074.88
2022-12-05T13:43:16.873Z,97063.53
2022-12-05T13:46:04.398Z,97061.91
2022-12-05T13:48:36.526Z,97063.25
2022-12-05T13:51:11.276Z,97063.84
2022-12-05T13:53:43.490Z,97065.97
2022-12-05T13:56:46.573Z,97067.03
2022-12-05T13:59:53.248Z,97065.41
2022-12-05T14:02:54.225Z,97067.81
2022-12-05T14:05:49.698Z,97065.41
2022-12-05T14:08:51.819Z,97074.06
2022-12-05T14:11:20.703Z,97072.44
2022-12-05T14:13:51.168Z,97081.63
2022-12-05T14:16:50.791Z,97077.06
2022-12-05T14:20:07.869Z,97075.94
2022-12-05T14:23:17.092Z,97072.44
2022-12-05T14:26:12.692Z,97054.59
2022-12-05T14:29:18.565Z,97062.13
2022-12-05T14:32:05.948Z,97064.28
2022-12-05T14:34:40.807Z,97059.97
2022-12-05T14:37:27.223Z,97062.69
2022-12-05T14:40:00.411Z,97054.28
2022-12-05T14:42:40.094Z,97054.56
2022-12-05T14:45:33.055Z,97050.78
2022-12-05T14:48:04.509Z,97050.25
2022-12-05T14:50:44.841Z,97054.34
2022-12-05T14:53:26.005Z,97052.72
2022-12-05T14:55:57.487Z,97053.53
2022-12-05T14:58:38.581Z,97056.47
2022-12-05T15:01:16.635Z,97062.44
2022-12-05T15:04:07.850Z,97061.91
2022-12-05T15:06:46.196Z,97065.16
2022-12-05T15:09:38.031Z,97067.56
2022-12-05T15:12:15.969Z,97058.91
2022-12-05T15:14:58.499Z,97066.44
2022-12-05T15:17:39.000Z,97071.81
2022-12-05T15:20:17.718Z,97085.91
2022-12-05T15:22:46.483Z,97082.38
2022-12-05T15:25:29.200Z,97083.72
2022-12-05T15:28:01.985Z,97086.94
2022-12-05T15:30:33.289Z,97089.91
2022-12-05T15:33:03.554Z,97088.59
2022-12-05T15:35:35.288Z,97098.03
2022-12-05T15:38:16.684Z,97096.72
2022-12-05T15:40:49.095Z,97105.84
2022-12-05T15:43:30.521Z,97109.94
2022-12-05T15:46:10.862Z,97113.75
2022-12-05T15:48:40.552Z,97105.59
2022-12-05T15:51:09.668Z,97114.22
2022-12-05T15:53:45.755Z,97110.97
2022-12-05T15:56:21.514Z,97109.63
2022-12-05T15:58:55.701Z,97104.22
2022-12-05T16:01:26.637Z,97103.69
2022-12-05T16:04:00.894Z,97103.13
2022-12-05T16:06:35.792Z,97102.84
2022-12-05T16:09:11.798Z,97105.53
2022-12-05T16:11:40.971Z,97103.66
2022-12-05T16:14:09.990Z,97112.28
2022-12-05T16:16:40.831Z,97110.16
2022-12-05T16:19:18.689Z,97106.09
2022-12-05T16:22:02.126Z,97115.03
2022-12-05T16:24:33.210Z,97100.44
2022-12-05T16:27:07.703Z,97106.13
2022-12-05T16:29:36.804Z,97112.06
2022-12-05T16:32:16.480Z,97117.50
2022-12-05T16:34:46.297Z,97112.06
2022-12-05T16:37:28.137Z,97110.16
2022-12-05T16:39:57.858Z,97112.81
2022-12-05T16:42:28.247Z,97110.69
2022-12-05T16:45:05.212Z,97121.25
2022-12-05T16:47:58.000Z,97110.69
2022-12-05T16:50:33.112Z,97126.91
2022-12-05T16:53:23.453Z,97126.13
2022-12-05T16:55:52.631Z,97123.97
2022-12-05T16:58:27.261Z,97119.66
2022-12-05T17:01:02.978Z,97122.88
2022-12-05T17:03:34.848Z,97114.78
2022-12-05T17:06:05.412Z,97109.63
2022-12-05T17:08:33.883Z,97101.78
2022-12-05T17:11:03.676Z,97103.66
2022-12-05T17:13:33.072Z,97110.75
2022-12-05T17:16:01.572Z,97108.31
2022-12-05T17:18:31.991Z,97117.75
2022-12-05T17:21:04.330Z,97116.69
2022-12-05T17:23:32.985Z,97117.75
2022-12-05T17:26:01.455Z,97120.75
2022-12-05T17:28:30.139Z,97118.84
2022-12-05T17:30:58.480Z,97119.66
2022-12-05T17:33:26.842Z,97119.66
2022-12-05T17:35:55.130Z,97121.25
2022-12-05T17:38:25.028Z,97126.94
2022-12-05T17:40:53.633Z,97130.19
2022-12-05T17:43:25.341Z,97135.09
2022-12-05T17:45:55.116Z,97128.06
2022-12-05T17:48:23.685Z,97130.22
2022-12-05T17:50:52.210Z,97126.16
2022-12-05T17:53:22.638Z,97130.22
2022-12-05T17:55:52.400Z,97121.28
2022-12-05T17:58:21.087Z,97125.63
2022-12-05T18:00:49.473Z,97120.22
2022-12-05T18:03:19.968Z,97135.66
2022-12-05T18:05:48.838Z,97119.19
2022-12-05T18:08:18.001Z,97126.47
2022-12-05T18:10:48.469Z,97126.47
2022-12-05T18:13:19.293Z,97129.44
2022-12-05T18:15:50.030Z,97133.22
2022-12-05T18:18:19.488Z,97137.25
2022-12-05T18:20:48.187Z,97143.75
2022-12-05T18:23:17.239Z,97139.38
2022-12-05T18:25:47.017Z,97146.97
2022-12-05T18:28:17.927Z,97146.41
2022-12-05T18:30:49.338Z,97146.44
2022-12-05T18:33:17.664Z,97148.59
2022-12-05T18:35:46.300Z,97148.84
2022-12-05T18:38:14.586Z,97138.03
2022-12-05T18:40:43.111Z,97145.59
2022-12-05T18:43:11.466Z,97144.22
2022-12-05T18:45:39.970Z,97148.84
2022-12-05T18:48:31.354Z,97142.38
2022-12-05T18:51:08.760Z,97141.81
2022-12-05T18:53:37.152Z,97144.25
2022-12-05T18:56:24.724Z,97139.97
2022-12-05T18:58:59.751Z,97140.22
2022-12-05T19:01:30.804Z,97139.38
2022-12-05T19:04:02.049Z,97141.28
2022-12-05T19:06:33.674Z,97144.28
2022-12-05T19:09:05.968Z,97139.66
2022-12-05T19:11:35.620Z,97150.47
2022-12-05T19:14:06.486Z,97156.19
2022-12-05T19:16:35.960Z,97157.53
2022-12-05T19:19:10.420Z,97151.31
2022-12-05T19:21:38.939Z,97150.53
2022-12-05T19:24:09.844Z,97141.59
2022-12-05T19:26:38.497Z,97148.34
2022-12-05T19:29:07.894Z,97150.25
2022-12-05T19:31:36.834Z,97149.97
2022-12-05T19:34:09.359Z,97143.75
2022-12-05T19:36:40.217Z,97140.25
2022-12-05T19:39:11.123Z,97133.72
2022-12-05T19:41:39.993Z,97132.41
2022-12-05T19:44:09.012Z,97133.72
2022-12-05T19:46:38.557Z,97134.00
2022-12-05T19:49:12.086Z,97137.81
2022-12-05T19:51:40.537Z,97133.19
2022-12-05T19:54:11.503Z,97131.84
2022-12-05T19:56:40.597Z,97128.56
2022-12-05T19:59:09.155Z,97129.13
2022-12-05T20:01:40.610Z,97131.56
2022-12-05T20:04:12.675Z,97139.94
2022-12-05T20:06:43.300Z,97141.34
2022-12-05T20:09:14.211Z,97142.69
2022-12-05T20:11:47.196Z,97140.50
2022-12-05T20:14:21.501Z,97149.72
2022-12-05T20:16:50.441Z,97144.31
2022-12-05T20:19:20.243Z,97139.41
2022-12-05T20:21:48.841Z,97137.53
2022-12-05T20:24:17.533Z,97137.53
2022-12-05T20:26:47.167Z,97129.69
2022-12-05T20:29:15.491Z,97130.22
2022-12-05T20:31:44.637Z,97122.66
2022-12-05T20:34:15.835Z,97125.91
2022-12-05T20:36:45.572Z,97129.69
2022-12-05T20:39:17.142Z,97128.63
2022-12-05T20:41:49.957Z,97136.22
2022-12-05T20:44:18.418Z,97135.91
2022-12-05T20:46:47.137Z,97134.06
2022-12-05T20:49:15.840Z,97126.47
2022-12-05T20:51:47.849Z,97130.53
2022-12-05T20:54:18.450Z,97129.44
2022-12-05T20:56:47.597Z,97127.00
2022-12-05T20:59:16.314Z,97129.19
2022-12-05T21:01:44.918Z,97122.44
2022-12-05T21:04:14.196Z,97122.16
2022-12-05T21:06:46.712Z,97131.09
2022-12-05T21:09:26.816Z,97120.53
2022-12-05T21:11:55.701Z,97121.06
2022-12-05T21:14:24.382Z,97118.91
2022-12-05T21:16:53.302Z,97128.38
2022-12-05T21:19:22.539Z,97122.44
2022-12-05T21:21:54.516Z,97127.31
2022-12-05T21:24:23.642Z,97123.78
2022-12-05T21:26:52.849Z,97124.84
2022-12-05T21:29:21.784Z,97120.78
2022-12-05T21:31:52.841Z,97118.06
2022-12-05T21:34:22.413Z,97120.75
2022-12-05T21:36:52.734Z,97123.16
2022-12-05T21:39:21.274Z,97113.72
2022-12-05T21:41:50.018Z,97119.41
2022-12-05T21:44:20.608Z,97122.66
2022-12-05T21:46:49.675Z,97124.25
2022-12-05T21:49:18.109Z,97124.25
2022-12-05T21:51:46.457Z,97126.16
2022-12-05T21:54:16.173Z,97124.81
2022-12-05T21:56:45.279Z,97131.84
2022-12-05T21:59:14.101Z,97133.50
2022-12-05T22:01:42.541Z,97135.94
2022-12-05T22:04:10.936Z,97136.47
2022-12-05T22:06:39.279Z,97134.03
2022-12-05T22:09:07.887Z,97126.47
2022-12-05T22:11:37.557Z,97130.25
2022-12-05T22:14:06.355Z,97129.94
2022-12-05T22:16:34.758Z,97129.69
2022-12-05T22:19:03.821Z,97135.38
2022-12-05T22:21:34.110Z,97126.72
2022-12-05T22:24:03.087Z,97133.19
2022-12-05T22:26:31.460Z,97130.78
2022-12-05T22:29:01.439Z,97133.75
2022-12-05T22:31:30.226Z,97133.50
2022-12-05T22:33:58.652Z,97139.41
2022-12-05T22:36:27.651Z,97141.31
2022-12-05T22:38:55.975Z,97136.72
2022-12-05T22:41:27.524Z,97137.78
2022-12-05T22:43:58.822Z,97134.03
2022-12-05T22:46:30.134Z,97136.19
2022-12-05T22:48:59.394Z,97140.25
2022-12-05T22:51:27.958Z,97138.34
2022-12-05T22:53:56.868Z,97145.16
2022-12-05T22:56:28.958Z,97144.31
2022-12-05T22:59:00.041Z,97136.22
2022-12-05T23:01:32.224Z,97140.28
2022-12-05T23:04:03.178Z,97137.31
2022-12-05T23:06:34.289Z,97147.31
2022-12-05T23:09:04.542Z,97150.28
2022-12-05T23:11:33.490Z,97143.00
2022-12-05T23:14:02.793Z,97139.50
2022-12-05T23:16:34.947Z,97134.09
2022-12-05T23:19:06.586Z,97133.56
2022-12-05T23:21:37.136Z,97131.38
2022-12-05T23:24:09.697Z,97128.97
2022-12-05T23:26:41.797Z,97124.63
2022-12-05T23:29:13.087Z,97120.56
2022-12-05T23:31:43.939Z,97119.50
2022-12-05T23:34:12.880Z,97113.53
2022-12-05T23:36:41.692Z,97112.22
2022-12-05T23:39:10.553Z,97121.13
2022-12-05T23:41:39.047Z,97128.97
2022-12-05T23:44:07.605Z,97124.91
2022-12-05T23:46:36.311Z,97127.88
2022-12-05T23:49:06.241Z,97125.19
2022-12-05T23:51:39.932Z,97129.22
2022-12-05T23:54:11.799Z,97129.22
2022-12-05T23:56:40.724Z,97130.03
2022-12-05T23:59:10.278Z,97125.72
